KHKS/HKS METAR and TAF weather

Enter ICAO airport designator
Station Type Date Time Source
KHKS METAR 2019/08/26 06:53 UTC NOAA

KHKS 260653Z AUTO 18003KT 8SM OVC008 24/23 A2986 RMK AO2 RAE26 CIG 006V010 SLP101 P0001 T02390228 $


Station Type Date Time Source
KHKS Decoded METAR 2019/08/26 06:53 UTC NOAA

Station name not available
Aug 26, 2019 - 02:53 AM EDT / 2019.08.26 0653 UTC
Wind: from the S (180 degrees) at 3 MPH (3 KT):0
Visibility: 8 mile(s):0
Sky conditions: overcast
Precipitation last hour: 0.01 inches
Temperature: 75.0 F (23.9 C)
Dew Point: 73.0 F (22.8 C)
Relative Humidity: 93%
Pressure (altimeter): 29.86 in. Hg (1011 hPa)
ob: KHKS 260653Z AUTO 18003KT 8SM OVC008 24/23 A2986 RMK AO2 RAE26 CIG 006V010 SLP101 P0001 T02390228
cycle: 7

Station Type Date Time Source
KHKS TAF 2019/08/26 06:42 UTC NOAA

TAF KHKS 260540Z 2606/2706 16009KT 4SM -SHRA BR BKN008 OVC015
FM261400 16005KT P6SM VCSH FEW008 BKN015
FM261700 18007KT 3SM -SHRA OVC007
FM261900 20007KT 6SM -SHRA OVC025
FM262200 22007KT P6SM VCSH SCT025 BKN035

Example: see airport list